sensor_id;sensor_type;location;lat;lon;timestamp;P1;durP1;ratioP1;P2;durP2;ratioP2
59312;SDS011;45084;51.486;7.366;2023-08-30T00:00:07;10.38;;;8.93;;
59312;SDS011;45084;51.486;7.366;2023-08-30T00:02:35;14.55;;;9.63;;
59312;SDS011;45084;51.486;7.366;2023-08-30T00:05:02;9.80;;;8.80;;
59312;SDS011;45084;51.486;7.366;2023-08-30T00:07:28;11.35;;;9.35;;
59312;SDS011;45084;51.486;7.366;2023-08-30T00:09:54;12.77;;;9.63;;
59312;SDS011;45084;51.486;7.366;2023-08-30T00:12:21;11.35;;;10.10;;
59312;SDS011;45084;51.486;7.366;2023-08-30T00:14:46;14.30;;;10.57;;
59312;SDS011;45084;51.486;7.366;2023-08-30T00:17:13;11.90;;;10.70;;
59312;SDS011;45084;51.486;7.366;2023-08-30T00:19:39;13.75;;;10.88;;
59312;SDS011;45084;51.486;7.366;2023-08-30T00:22:05;18.77;;;11.88;;
59312;SDS011;45084;51.486;7.366;2023-08-30T00:24:34;15.50;;;11.85;;
59312;SDS011;45084;51.486;7.366;2023-08-30T00:27:00;15.23;;;12.35;;
59312;SDS011;45084;51.486;7.366;2023-08-30T00:29:27;14.95;;;12.68;;
59312;SDS011;45084;51.486;7.366;2023-08-30T00:31:54;15.15;;;12.63;;
59312;SDS011;45084;51.486;7.366;2023-08-30T00:34:20;14.13;;;12.70;;
59312;SDS011;45084;51.486;7.366;2023-08-30T00:36:45;15.88;;;13.05;;
59312;SDS011;45084;51.486;7.366;2023-08-30T00:39:11;15.70;;;12.60;;
59312;SDS011;45084;51.486;7.366;2023-08-30T00:41:38;14.40;;;12.43;;
59312;SDS011;45084;51.486;7.366;2023-08-30T00:44:04;13.57;;;11.82;;
59312;SDS011;45084;51.486;7.366;2023-08-30T00:46:29;15.27;;;12.63;;
59312;SDS011;45084;51.486;7.366;2023-08-30T00:48:56;18.02;;;12.73;;
59312;SDS011;45084;51.486;7.366;2023-08-30T00:51:23;13.05;;;11.75;;
59312;SDS011;45084;51.486;7.366;2023-08-30T00:53:49;15.02;;;12.75;;
59312;SDS011;45084;51.486;7.366;2023-08-30T00:56:15;15.30;;;13.70;;
59312;SDS011;45084;51.486;7.366;2023-08-30T00:58:41;17.92;;;13.90;;
59312;SDS011;45084;51.486;7.366;2023-08-30T01:01:07;16.25;;;14.30;;
59312;SDS011;45084;51.486;7.366;2023-08-30T01:03:33;16.98;;;13.98;;
59312;SDS011;45084;51.486;7.366;2023-08-30T01:05:59;16.85;;;14.73;;
59312;SDS011;45084;51.486;7.366;2023-08-30T01:08:25;15.73;;;14.07;;
59312;SDS011;45084;51.486;7.366;2023-08-30T01:13:26;16.77;;;14.55;;
59312;SDS011;45084;51.486;7.366;2023-08-30T01:15:56;17.88;;;15.10;;
59312;SDS011;45084;51.486;7.366;2023-08-30T01:18:25;18.15;;;14.68;;
59312;SDS011;45084;51.486;7.366;2023-08-30T01:20:52;16.55;;;14.85;;
59312;SDS011;45084;51.486;7.366;2023-08-30T01:23:40;19.02;;;15.88;;
59312;SDS011;45084;51.486;7.366;2023-08-30T01:26:14;18.15;;;14.95;;
59312;SDS011;45084;51.486;7.366;2023-08-30T01:28:51;19.92;;;15.10;;
59312;SDS011;45084;51.486;7.366;2023-08-30T01:31:18;18.55;;;16.55;;
59312;SDS011;45084;51.486;7.366;2023-08-30T01:33:46;22.08;;;15.90;;
59312;SDS011;45084;51.486;7.366;2023-08-30T01:36:13;18.92;;;15.73;;
59312;SDS011;45084;51.486;7.366;2023-08-30T01:38:39;19.70;;;16.83;;
59312;SDS011;45084;51.486;7.366;2023-08-30T01:41:06;23.23;;;16.70;;
59312;SDS011;45084;51.486;7.366;2023-08-30T01:43:32;23.90;;;16.63;;
59312;SDS011;45084;51.486;7.366;2023-08-30T01:45:58;24.95;;;17.40;;
59312;SDS011;45084;51.486;7.366;2023-08-30T01:48:26;20.33;;;16.80;;
59312;SDS011;45084;51.486;7.366;2023-08-30T01:50:52;20.55;;;16.10;;
59312;SDS011;45084;51.486;7.366;2023-08-30T01:53:23;18.40;;;15.75;;
59312;SDS011;45084;51.486;7.366;2023-08-30T01:55:49;21.02;;;16.65;;
59312;SDS011;45084;51.486;7.366;2023-08-30T01:58:15;17.60;;;15.52;;
59312;SDS011;45084;51.486;7.366;2023-08-30T02:00:41;22.70;;;15.82;;
59312;SDS011;45084;51.486;7.366;2023-08-30T02:03:10;21.13;;;16.80;;
59312;SDS011;45084;51.486;7.366;2023-08-30T02:05:38;23.48;;;16.55;;
59312;SDS011;45084;51.486;7.366;2023-08-30T02:08:13;19.02;;;16.73;;
59312;SDS011;45084;51.486;7.366;2023-08-30T02:10:44;21.02;;;16.20;;
59312;SDS011;45084;51.486;7.366;2023-08-30T02:13:18;23.50;;;18.05;;
59312;SDS011;45084;51.486;7.366;2023-08-30T02:15:50;19.60;;;16.60;;
59312;SDS011;45084;51.486;7.366;2023-08-30T02:18:19;22.20;;;17.40;;
59312;SDS011;45084;51.486;7.366;2023-08-30T02:20:45;24.10;;;17.02;;
59312;SDS011;45084;51.486;7.366;2023-08-30T02:23:11;24.00;;;18.27;;
59312;SDS011;45084;51.486;7.366;2023-08-30T02:25:37;22.70;;;18.05;;
59312;SDS011;45084;51.486;7.366;2023-08-30T02:28:03;21.10;;;18.15;;
59312;SDS011;45084;51.486;7.366;2023-08-30T02:30:28;21.13;;;17.30;;
59312;SDS011;45084;51.486;7.366;2023-08-30T02:32:54;25.95;;;18.55;;
59312;SDS011;45084;51.486;7.366;2023-08-30T02:35:20;21.58;;;17.23;;
59312;SDS011;45084;51.486;7.366;2023-08-30T02:37:45;22.65;;;17.00;;
59312;SDS011;45084;51.486;7.366;2023-08-30T02:40:11;23.52;;;18.80;;
59312;SDS011;45084;51.486;7.366;2023-08-30T02:42:37;24.48;;;18.25;;
59312;SDS011;45084;51.486;7.366;2023-08-30T02:45:02;20.40;;;16.20;;
59312;SDS011;45084;51.486;7.366;2023-08-30T02:47:28;19.02;;;16.63;;
59312;SDS011;45084;51.486;7.366;2023-08-30T02:49:54;20.73;;;16.98;;
59312;SDS011;45084;51.486;7.366;2023-08-30T02:52:19;23.85;;;18.15;;
59312;SDS011;45084;51.486;7.366;2023-08-30T02:54:45;25.65;;;17.55;;
59312;SDS011;45084;51.486;7.366;2023-08-30T02:57:11;22.02;;;16.80;;
59312;SDS011;45084;51.486;7.366;2023-08-30T02:59:36;24.50;;;17.80;;
59312;SDS011;45084;51.486;7.366;2023-08-30T03:02:02;21.90;;;18.50;;
59312;SDS011;45084;51.486;7.366;2023-08-30T03:04:27;23.55;;;18.75;;
59312;SDS011;45084;51.486;7.366;2023-08-30T03:06:53;24.23;;;18.50;;
59312;SDS011;45084;51.486;7.366;2023-08-30T03:09:19;21.27;;;17.95;;
59312;SDS011;45084;51.486;7.366;2023-08-30T03:18:10;24.33;;;18.70;;
59312;SDS011;45084;51.486;7.366;2023-08-30T03:20:35;25.63;;;20.48;;
59312;SDS011;45084;51.486;7.366;2023-08-30T03:23:01;29.98;;;20.08;;
59312;SDS011;45084;51.486;7.366;2023-08-30T03:25:29;26.02;;;19.30;;
59312;SDS011;45084;51.486;7.366;2023-08-30T03:27:55;23.75;;;19.42;;
59312;SDS011;45084;51.486;7.366;2023-08-30T03:30:21;23.95;;;18.98;;
59312;SDS011;45084;51.486;7.366;2023-08-30T03:32:47;25.27;;;19.33;;
59312;SDS011;45084;51.486;7.366;2023-08-30T03:35:13;27.25;;;19.83;;
59312;SDS011;45084;51.486;7.366;2023-08-30T03:37:41;23.40;;;18.73;;
59312;SDS011;45084;51.486;7.366;2023-08-30T03:40:07;23.42;;;19.10;;
59312;SDS011;45084;51.486;7.366;2023-08-30T03:42:36;25.30;;;19.60;;
59312;SDS011;45084;51.486;7.366;2023-08-30T03:45:02;29.70;;;20.10;;
59312;SDS011;45084;51.486;7.366;2023-08-30T03:47:30;24.83;;;19.48;;
59312;SDS011;45084;51.486;7.366;2023-08-30T03:49:57;30.25;;;20.15;;
59312;SDS011;45084;51.486;7.366;2023-08-30T03:52:23;27.30;;;21.25;;
59312;SDS011;45084;51.486;7.366;2023-08-30T03:54:49;26.88;;;20.63;;
59312;SDS011;45084;51.486;7.366;2023-08-30T03:57:15;27.52;;;20.15;;
59312;SDS011;45084;51.486;7.366;2023-08-30T03:59:41;24.15;;;19.58;;
59312;SDS011;45084;51.486;7.366;2023-08-30T04:02:07;26.38;;;21.17;;
59312;SDS011;45084;51.486;7.366;2023-08-30T04:04:32;25.98;;;20.42;;
59312;SDS011;45084;51.486;7.366;2023-08-30T04:06:58;26.42;;;19.40;;
59312;SDS011;45084;51.486;7.366;2023-08-30T04:09:24;31.25;;;21.50;;
59312;SDS011;45084;51.486;7.366;2023-08-30T04:11:49;26.42;;;20.77;;
59312;SDS011;45084;51.486;7.366;2023-08-30T04:14:15;27.27;;;21.77;;
59312;SDS011;45084;51.486;7.366;2023-08-30T04:16:44;30.17;;;21.67;;
59312;SDS011;45084;51.486;7.366;2023-08-30T04:19:09;29.25;;;22.25;;
59312;SDS011;45084;51.486;7.366;2023-08-30T04:21:35;30.02;;;23.23;;
59312;SDS011;45084;51.486;7.366;2023-08-30T04:24:02;34.95;;;25.50;;
59312;SDS011;45084;51.486;7.366;2023-08-30T04:26:28;40.75;;;26.95;;
59312;SDS011;45084;51.486;7.366;2023-08-30T04:28:54;35.22;;;26.13;;
59312;SDS011;45084;51.486;7.366;2023-08-30T04:31:20;33.72;;;24.42;;
59312;SDS011;45084;51.486;7.366;2023-08-30T04:33:45;40.15;;;25.80;;
59312;SDS011;45084;51.486;7.366;2023-08-30T04:36:11;36.70;;;25.98;;
59312;SDS011;45084;51.486;7.366;2023-08-30T04:38:36;38.53;;;26.92;;
59312;SDS011;45084;51.486;7.366;2023-08-30T04:41:02;35.90;;;26.30;;
59312;SDS011;45084;51.486;7.366;2023-08-30T04:43:27;38.58;;;28.25;;
59312;SDS011;45084;51.486;7.366;2023-08-30T04:45:53;38.70;;;28.92;;
59312;SDS011;45084;51.486;7.366;2023-08-30T04:48:19;42.45;;;27.75;;
59312;SDS011;45084;51.486;7.366;2023-08-30T04:50:44;40.20;;;29.98;;
59312;SDS011;45084;51.486;7.366;2023-08-30T04:53:10;42.35;;;30.50;;
59312;SDS011;45084;51.486;7.366;2023-08-30T04:55:35;46.67;;;32.15;;
59312;SDS011;45084;51.486;7.366;2023-08-30T04:58:01;46.80;;;32.38;;
59312;SDS011;45084;51.486;7.366;2023-08-30T05:00:27;43.95;;;31.83;;
59312;SDS011;45084;51.486;7.366;2023-08-30T05:02:53;47.25;;;31.30;;
59312;SDS011;45084;51.486;7.366;2023-08-30T05:05:18;43.65;;;30.65;;
59312;SDS011;45084;51.486;7.366;2023-08-30T05:07:44;44.90;;;30.90;;
59312;SDS011;45084;51.486;7.366;2023-08-30T05:10:10;41.95;;;31.00;;
59312;SDS011;45084;51.486;7.366;2023-08-30T05:12:35;44.58;;;31.92;;
59312;SDS011;45084;51.486;7.366;2023-08-30T05:15:01;44.28;;;31.50;;
59312;SDS011;45084;51.486;7.366;2023-08-30T05:17:28;44.03;;;31.08;;
59312;SDS011;45084;51.486;7.366;2023-08-30T05:19:54;43.25;;;31.92;;
59312;SDS011;45084;51.486;7.366;2023-08-30T05:22:20;48.10;;;31.48;;
59312;SDS011;45084;51.486;7.366;2023-08-30T05:24:45;44.63;;;30.88;;
59312;SDS011;45084;51.486;7.366;2023-08-30T05:27:11;42.60;;;30.30;;
59312;SDS011;45084;51.486;7.366;2023-08-30T05:29:37;43.72;;;31.00;;
59312;SDS011;45084;51.486;7.366;2023-08-30T05:32:03;43.38;;;32.35;;
59312;SDS011;45084;51.486;7.366;2023-08-30T05:34:30;37.30;;;29.08;;
59312;SDS011;45084;51.486;7.366;2023-08-30T05:36:56;39.83;;;28.35;;
59312;SDS011;45084;51.486;7.366;2023-08-30T05:39:21;39.33;;;29.50;;
59312;SDS011;45084;51.486;7.366;2023-08-30T05:41:47;39.85;;;29.42;;
59312;SDS011;45084;51.486;7.366;2023-08-30T05:44:13;38.20;;;29.15;;
59312;SDS011;45084;51.486;7.366;2023-08-30T05:46:38;41.60;;;30.73;;
59312;SDS011;45084;51.486;7.366;2023-08-30T05:49:04;42.00;;;30.58;;
59312;SDS011;45084;51.486;7.366;2023-08-30T05:51:29;41.85;;;30.95;;
59312;SDS011;45084;51.486;7.366;2023-08-30T05:53:55;43.33;;;32.33;;
59312;SDS011;45084;51.486;7.366;2023-08-30T05:56:21;46.40;;;34.10;;
59312;SDS011;45084;51.486;7.366;2023-08-30T05:58:46;43.20;;;32.25;;
59312;SDS011;45084;51.486;7.366;2023-08-30T06:01:12;42.25;;;32.72;;
59312;SDS011;45084;51.486;7.366;2023-08-30T06:03:38;43.95;;;33.45;;
59312;SDS011;45084;51.486;7.366;2023-08-30T06:06:10;42.28;;;32.35;;
59312;SDS011;45084;51.486;7.366;2023-08-30T06:08:40;39.70;;;31.75;;
59312;SDS011;45084;51.486;7.366;2023-08-30T06:11:08;42.05;;;31.88;;
59312;SDS011;45084;51.486;7.366;2023-08-30T06:13:34;39.15;;;30.83;;
59312;SDS011;45084;51.486;7.366;2023-08-30T06:16:07;41.55;;;31.17;;
59312;SDS011;45084;51.486;7.366;2023-08-30T06:18:33;36.72;;;28.90;;
59312;SDS011;45084;51.486;7.366;2023-08-30T06:21:02;35.35;;;27.98;;
59312;SDS011;45084;51.486;7.366;2023-08-30T06:23:29;36.40;;;29.23;;
59312;SDS011;45084;51.486;7.366;2023-08-30T06:26:00;32.45;;;27.65;;
59312;SDS011;45084;51.486;7.366;2023-08-30T06:28:27;31.60;;;28.10;;
59312;SDS011;45084;51.486;7.366;2023-08-30T06:30:56;35.05;;;27.48;;
59312;SDS011;45084;51.486;7.366;2023-08-30T06:33:24;33.08;;;26.55;;
59312;SDS011;45084;51.486;7.366;2023-08-30T06:35:49;34.97;;;27.38;;
59312;SDS011;45084;51.486;7.366;2023-08-30T06:38:15;35.30;;;26.38;;
59312;SDS011;45084;51.486;7.366;2023-08-30T06:40:47;32.42;;;25.25;;
59312;SDS011;45084;51.486;7.366;2023-08-30T06:43:16;32.53;;;25.80;;
59312;SDS011;45084;51.486;7.366;2023-08-30T06:45:47;31.65;;;25.95;;
59312;SDS011;45084;51.486;7.366;2023-08-30T06:48:13;29.70;;;24.13;;
59312;SDS011;45084;51.486;7.366;2023-08-30T06:50:39;31.90;;;24.95;;
59312;SDS011;45084;51.486;7.366;2023-08-30T06:53:04;29.73;;;23.05;;
59312;SDS011;45084;51.486;7.366;2023-08-30T06:55:30;30.08;;;23.77;;
59312;SDS011;45084;51.486;7.366;2023-08-30T06:57:58;29.00;;;23.95;;
59312;SDS011;45084;51.486;7.366;2023-08-30T07:00:24;31.10;;;23.92;;
59312;SDS011;45084;51.486;7.366;2023-08-30T07:02:50;29.25;;;24.02;;
59312;SDS011;45084;51.486;7.366;2023-08-30T07:05:15;27.73;;;23.65;;
59312;SDS011;45084;51.486;7.366;2023-08-30T07:07:43;31.08;;;25.90;;
59312;SDS011;45084;51.486;7.366;2023-08-30T07:10:11;34.35;;;25.92;;
59312;SDS011;45084;51.486;7.366;2023-08-30T07:12:44;31.27;;;27.10;;
59312;SDS011;45084;51.486;7.366;2023-08-30T07:15:13;34.13;;;26.25;;
59312;SDS011;45084;51.486;7.366;2023-08-30T07:17:42;30.83;;;25.42;;
59312;SDS011;45084;51.486;7.366;2023-08-30T07:20:08;29.70;;;26.20;;
59312;SDS011;45084;51.486;7.366;2023-08-30T07:22:42;33.05;;;25.35;;
59312;SDS011;45084;51.486;7.366;2023-08-30T07:25:11;28.58;;;24.42;;
59312;SDS011;45084;51.486;7.366;2023-08-30T07:27:47;31.10;;;25.52;;
59312;SDS011;45084;51.486;7.366;2023-08-30T07:36:38;27.55;;;23.08;;
59312;SDS011;45084;51.486;7.366;2023-08-30T07:39:22;25.50;;;22.65;;
59312;SDS011;45084;51.486;7.366;2023-08-30T07:42:19;25.95;;;22.42;;
59312;SDS011;45084;51.486;7.366;2023-08-30T07:45:25;24.77;;;22.08;;
59312;SDS011;45084;51.486;7.366;2023-08-30T07:47:59;28.50;;;22.98;;
59312;SDS011;45084;51.486;7.366;2023-08-30T07:50:31;25.80;;;20.58;;
59312;SDS011;45084;51.486;7.366;2023-08-30T07:53:07;22.73;;;20.33;;
59312;SDS011;45084;51.486;7.366;2023-08-30T07:55:38;23.90;;;19.80;;
59312;SDS011;45084;51.486;7.366;2023-08-30T07:58:23;23.65;;;19.98;;
59312;SDS011;45084;51.486;7.366;2023-08-30T08:01:11;25.33;;;19.27;;
59312;SDS011;45084;51.486;7.366;2023-08-30T08:04:03;19.90;;;16.85;;
59312;SDS011;45084;51.486;7.366;2023-08-30T08:06:31;20.08;;;17.45;;
59312;SDS011;45084;51.486;7.366;2023-08-30T08:09:02;17.42;;;15.27;;
59312;SDS011;45084;51.486;7.366;2023-08-30T08:11:31;21.77;;;16.20;;
59312;SDS011;45084;51.486;7.366;2023-08-30T08:14:10;18.83;;;14.20;;
59312;SDS011;45084;51.486;7.366;2023-08-30T08:16:36;14.50;;;13.00;;
59312;SDS011;45084;51.486;7.366;2023-08-30T08:19:32;14.93;;;13.18;;
59312;SDS011;45084;51.486;7.366;2023-08-30T08:22:01;13.15;;;11.27;;
59312;SDS011;45084;51.486;7.366;2023-08-30T08:24:29;11.30;;;9.07;;
59312;SDS011;45084;51.486;7.366;2023-08-30T08:27:06;10.90;;;8.43;;
59312;SDS011;45084;51.486;7.366;2023-08-30T08:29:41;10.45;;;7.72;;
59312;SDS011;45084;51.486;7.366;2023-08-30T08:32:15;9.10;;;6.57;;
59312;SDS011;45084;51.486;7.366;2023-08-30T08:34:41;7.15;;;5.63;;
59312;SDS011;45084;51.486;7.366;2023-08-30T08:37:14;9.23;;;6.20;;
59312;SDS011;45084;51.486;7.366;2023-08-30T08:39:41;11.35;;;6.18;;
59312;SDS011;45084;51.486;7.366;2023-08-30T08:42:11;9.10;;;5.93;;
59312;SDS011;45084;51.486;7.366;2023-08-30T08:44:36;8.15;;;5.85;;
59312;SDS011;45084;51.486;7.366;2023-08-30T08:47:10;6.32;;;5.30;;
59312;SDS011;45084;51.486;7.366;2023-08-30T08:49:39;7.13;;;5.20;;
59312;SDS011;45084;51.486;7.366;2023-08-30T08:52:08;8.73;;;5.28;;
59312;SDS011;45084;51.486;7.366;2023-08-30T08:54:35;7.07;;;5.60;;
59312;SDS011;45084;51.486;7.366;2023-08-30T08:57:12;7.22;;;4.88;;
59312;SDS011;45084;51.486;7.366;2023-08-30T08:59:50;5.90;;;4.32;;
59312;SDS011;45084;51.486;7.366;2023-08-30T09:02:20;6.30;;;4.85;;
59312;SDS011;45084;51.486;7.366;2023-08-30T09:04:57;6.85;;;4.63;;
59312;SDS011;45084;51.486;7.366;2023-08-30T09:08:05;6.78;;;4.68;;
59312;SDS011;45084;51.486;7.366;2023-08-30T09:10:37;5.90;;;4.38;;
59312;SDS011;45084;51.486;7.366;2023-08-30T09:13:12;6.13;;;4.07;;
59312;SDS011;45084;51.486;7.366;2023-08-30T09:15:43;4.25;;;3.70;;
59312;SDS011;45084;51.486;7.366;2023-08-30T09:18:18;4.35;;;3.70;;
59312;SDS011;45084;51.486;7.366;2023-08-30T09:20:44;4.57;;;3.60;;
59312;SDS011;45084;51.486;7.366;2023-08-30T09:23:16;5.43;;;4.20;;
59312;SDS011;45084;51.486;7.366;2023-08-30T09:25:43;6.47;;;3.80;;
59312;SDS011;45084;51.486;7.366;2023-08-30T09:28:09;9.88;;;3.88;;
59312;SDS011;45084;51.486;7.366;2023-08-30T09:30:35;5.72;;;4.00;;
59312;SDS011;45084;51.486;7.366;2023-08-30T09:33:04;6.40;;;3.55;;
59312;SDS011;45084;51.486;7.366;2023-08-30T09:35:29;4.68;;;3.80;;
59312;SDS011;45084;51.486;7.366;2023-08-30T09:37:55;7.18;;;4.30;;
59312;SDS011;45084;51.486;7.366;2023-08-30T09:40:20;4.30;;;3.72;;
59312;SDS011;45084;51.486;7.366;2023-08-30T09:42:47;6.78;;;4.00;;
59312;SDS011;45084;51.486;7.366;2023-08-30T09:45:19;8.10;;;5.40;;
59312;SDS011;45084;51.486;7.366;2023-08-30T09:47:49;7.13;;;4.68;;
59312;SDS011;45084;51.486;7.366;2023-08-30T09:50:19;8.23;;;4.40;;
59312;SDS011;45084;51.486;7.366;2023-08-30T09:52:49;5.18;;;4.47;;
59312;SDS011;45084;51.486;7.366;2023-08-30T09:55:15;8.25;;;4.30;;
59312;SDS011;45084;51.486;7.366;2023-08-30T09:57:43;5.95;;;4.13;;
59312;SDS011;45084;51.486;7.366;2023-08-30T10:00:09;6.28;;;4.15;;
59312;SDS011;45084;51.486;7.366;2023-08-30T10:02:39;5.85;;;4.35;;
59312;SDS011;45084;51.486;7.366;2023-08-30T10:05:08;5.65;;;4.35;;
59312;SDS011;45084;51.486;7.366;2023-08-30T10:07:41;4.55;;;4.10;;
59312;SDS011;45084;51.486;7.366;2023-08-30T10:10:08;5.97;;;4.25;;
59312;SDS011;45084;51.486;7.366;2023-08-30T10:12:35;5.38;;;4.43;;
59312;SDS011;45084;51.486;7.366;2023-08-30T10:15:01;6.93;;;4.60;;
59312;SDS011;45084;51.486;7.366;2023-08-30T10:17:28;6.55;;;4.60;;
59312;SDS011;45084;51.486;7.366;2023-08-30T10:19:57;5.45;;;4.07;;
59312;SDS011;45084;51.486;7.366;2023-08-30T10:22:26;7.03;;;4.68;;
59312;SDS011;45084;51.486;7.366;2023-08-30T10:24:54;5.43;;;4.05;;
59312;SDS011;45084;51.486;7.366;2023-08-30T10:27:23;5.78;;;4.10;;
59312;SDS011;45084;51.486;7.366;2023-08-30T10:29:51;5.97;;;4.60;;
59312;SDS011;45084;51.486;7.366;2023-08-30T10:32:20;7.78;;;4.80;;
59312;SDS011;45084;51.486;7.366;2023-08-30T10:34:47;6.03;;;5.03;;
59312;SDS011;45084;51.486;7.366;2023-08-30T10:37:22;6.82;;;6.13;;
59312;SDS011;45084;51.486;7.366;2023-08-30T10:39:49;7.95;;;6.50;;
59312;SDS011;45084;51.486;7.366;2023-08-30T10:42:15;8.45;;;6.30;;
59312;SDS011;45084;51.486;7.366;2023-08-30T10:47:18;7.38;;;6.72;;
59312;SDS011;45084;51.486;7.366;2023-08-30T10:49:56;7.78;;;7.07;;
59312;SDS011;45084;51.486;7.366;2023-08-30T10:52:24;7.75;;;7.05;;
59312;SDS011;45084;51.486;7.366;2023-08-30T10:54:50;8.82;;;7.13;;
59312;SDS011;45084;51.486;7.366;2023-08-30T10:57:24;8.20;;;7.50;;
59312;SDS011;45084;51.486;7.366;2023-08-30T11:02:58;8.68;;;7.82;;
59312;SDS011;45084;51.486;7.366;2023-08-30T11:05:25;11.45;;;8.60;;
59312;SDS011;45084;51.486;7.366;2023-08-30T11:07:53;9.32;;;8.40;;
59312;SDS011;45084;51.486;7.366;2023-08-30T11:10:19;9.82;;;8.90;;
59312;SDS011;45084;51.486;7.366;2023-08-30T11:12:45;9.20;;;8.40;;
59312;SDS011;45084;51.486;7.366;2023-08-30T11:15:12;10.88;;;8.50;;
59312;SDS011;45084;51.486;7.366;2023-08-30T11:17:41;10.43;;;9.38;;
59312;SDS011;45084;51.486;7.366;2023-08-30T11:20:11;9.95;;;9.02;;
59312;SDS011;45084;51.486;7.366;2023-08-30T11:22:45;12.07;;;9.00;;
59312;SDS011;45084;51.486;7.366;2023-08-30T11:25:12;10.45;;;9.30;;
59312;SDS011;45084;51.486;7.366;2023-08-30T11:27:40;11.55;;;10.35;;
59312;SDS011;45084;51.486;7.366;2023-08-30T11:30:06;11.27;;;10.18;;
59312;SDS011;45084;51.486;7.366;2023-08-30T11:32:34;10.57;;;9.55;;
59312;SDS011;45084;51.486;7.366;2023-08-30T11:35:00;12.27;;;9.70;;
59312;SDS011;45084;51.486;7.366;2023-08-30T11:37:26;10.98;;;9.90;;
59312;SDS011;45084;51.486;7.366;2023-08-30T11:39:53;10.27;;;9.25;;
59312;SDS011;45084;51.486;7.366;2023-08-30T11:42:22;12.73;;;9.48;;
59312;SDS011;45084;51.486;7.366;2023-08-30T11:44:47;9.80;;;8.82;;
59312;SDS011;45084;51.486;7.366;2023-08-30T11:47:20;10.75;;;9.00;;
59312;SDS011;45084;51.486;7.366;2023-08-30T11:49:48;9.30;;;8.40;;
59312;SDS011;45084;51.486;7.366;2023-08-30T11:52:15;10.30;;;7.53;;
59312;SDS011;45084;51.486;7.366;2023-08-30T11:54:42;9.13;;;6.95;;
59312;SDS011;45084;51.486;7.366;2023-08-30T11:57:09;8.88;;;6.50;;
59312;SDS011;45084;51.486;7.366;2023-08-30T11:59:35;9.50;;;6.80;;
59312;SDS011;45084;51.486;7.366;2023-08-30T12:02:01;9.48;;;6.60;;
59312;SDS011;45084;51.486;7.366;2023-08-30T12:07:01;7.50;;;6.75;;
59312;SDS011;45084;51.486;7.366;2023-08-30T12:09:36;7.60;;;6.85;;
59312;SDS011;45084;51.486;7.366;2023-08-30T12:12:10;7.97;;;6.35;;
59312;SDS011;45084;51.486;7.366;2023-08-30T12:14:36;5.90;;;5.28;;
59312;SDS011;45084;51.486;7.366;2023-08-30T12:17:02;5.57;;;4.93;;
59312;SDS011;45084;51.486;7.366;2023-08-30T12:19:28;8.30;;;5.13;;
59312;SDS011;45084;51.486;7.366;2023-08-30T12:21:54;6.70;;;5.30;;
59312;SDS011;45084;51.486;7.366;2023-08-30T12:24:20;5.53;;;4.57;;
59312;SDS011;45084;51.486;7.366;2023-08-30T12:26:47;6.22;;;5.05;;
59312;SDS011;45084;51.486;7.366;2023-08-30T12:29:13;7.32;;;4.13;;
59312;SDS011;45084;51.486;7.366;2023-08-30T12:34:12;3.72;;;3.42;;
59312;SDS011;45084;51.486;7.366;2023-08-30T12:37:03;4.30;;;3.67;;
59312;SDS011;45084;51.486;7.366;2023-08-30T12:39:53;4.70;;;3.90;;
59312;SDS011;45084;51.486;7.366;2023-08-30T12:42:21;4.00;;;3.60;;
59312;SDS011;45084;51.486;7.366;2023-08-30T12:44:53;3.97;;;3.67;;
59312;SDS011;45084;51.486;7.366;2023-08-30T12:47:18;5.72;;;3.60;;
59312;SDS011;45084;51.486;7.366;2023-08-30T12:49:44;4.70;;;3.70;;
59312;SDS011;45084;51.486;7.366;2023-08-30T12:58:38;5.43;;;3.45;;
59312;SDS011;45084;51.486;7.366;2023-08-30T13:01:24;2.92;;;2.50;;
59312;SDS011;45084;51.486;7.366;2023-08-30T13:04:11;2.80;;;2.25;;
59312;SDS011;45084;51.486;7.366;2023-08-30T13:06:38;2.53;;;2.33;;
59312;SDS011;45084;51.486;7.366;2023-08-30T13:09:04;3.40;;;2.15;;
59312;SDS011;45084;51.486;7.366;2023-08-30T13:11:35;3.92;;;2.60;;
59312;SDS011;45084;51.486;7.366;2023-08-30T13:18:25;2.55;;;2.35;;
59312;SDS011;45084;51.486;7.366;2023-08-30T13:48:25;3.92;;;2.88;;
59312;SDS011;45084;51.486;7.366;2023-08-30T13:51:02;2.90;;;2.67;;
59312;SDS011;45084;51.486;7.366;2023-08-30T13:53:43;3.35;;;3.00;;
59312;SDS011;45084;51.486;7.366;2023-08-30T13:56:44;3.65;;;3.20;;
59312;SDS011;45084;51.486;7.366;2023-08-30T13:59:25;5.80;;;3.65;;
59312;SDS011;45084;51.486;7.366;2023-08-30T14:05:20;4.05;;;3.70;;
59312;SDS011;45084;51.486;7.366;2023-08-30T14:07:46;6.00;;;4.53;;
59312;SDS011;45084;51.486;7.366;2023-08-30T14:10:11;4.72;;;4.22;;
59312;SDS011;45084;51.486;7.366;2023-08-30T14:12:42;4.53;;;3.65;;
59312;SDS011;45084;51.486;7.366;2023-08-30T14:15:08;3.63;;;3.33;;
59312;SDS011;45084;51.486;7.366;2023-08-30T14:17:33;3.10;;;2.88;;
59312;SDS011;45084;51.486;7.366;2023-08-30T14:19:59;3.33;;;3.03;;
59312;SDS011;45084;51.486;7.366;2023-08-30T14:22:34;5.07;;;3.67;;
59312;SDS011;45084;51.486;7.366;2023-08-30T14:24:59;3.83;;;3.20;;
59312;SDS011;45084;51.486;7.366;2023-08-30T14:27:27;4.00;;;3.40;;
59312;SDS011;45084;51.486;7.366;2023-08-30T14:29:53;4.43;;;3.70;;
59312;SDS011;45084;51.486;7.366;2023-08-30T14:32:19;3.60;;;3.30;;
59312;SDS011;45084;51.486;7.366;2023-08-30T15:05:55;4.88;;;3.92;;
59312;SDS011;45084;51.486;7.366;2023-08-30T15:16:08;3.95;;;3.63;;
59312;SDS011;45084;51.486;7.366;2023-08-30T15:41:53;5.35;;;4.20;;
59312;SDS011;45084;51.486;7.366;2023-08-30T15:44:24;4.55;;;4.15;;
59312;SDS011;45084;51.486;7.366;2023-08-30T15:46:52;10.60;;;5.40;;
59312;SDS011;45084;51.486;7.366;2023-08-30T16:14:12;6.32;;;5.25;;
59312;SDS011;45084;51.486;7.366;2023-08-30T16:16:51;6.60;;;4.55;;
59312;SDS011;45084;51.486;7.366;2023-08-30T16:33:05;5.13;;;4.70;;
59312;SDS011;45084;51.486;7.366;2023-08-30T16:35:31;6.35;;;5.75;;
59312;SDS011;45084;51.486;7.366;2023-08-30T16:37:58;5.85;;;5.30;;
59312;SDS011;45084;51.486;7.366;2023-08-30T16:40:24;5.35;;;4.80;;
59312;SDS011;45084;51.486;7.366;2023-08-30T16:42:51;5.95;;;5.00;;
59312;SDS011;45084;51.486;7.366;2023-08-30T16:45:17;6.50;;;5.90;;
59312;SDS011;45084;51.486;7.366;2023-08-30T16:47:43;9.43;;;6.20;;
59312;SDS011;45084;51.486;7.366;2023-08-30T16:50:09;9.55;;;6.38;;
59312;SDS011;45084;51.486;7.366;2023-08-30T16:52:37;6.43;;;5.32;;
59312;SDS011;45084;51.486;7.366;2023-08-30T16:55:02;6.45;;;5.60;;
59312;SDS011;45084;51.486;7.366;2023-08-30T16:57:28;7.97;;;6.03;;
59312;SDS011;45084;51.486;7.366;2023-08-30T16:59:54;8.65;;;6.53;;
59312;SDS011;45084;51.486;7.366;2023-08-30T17:15:18;7.13;;;5.93;;
59312;SDS011;45084;51.486;7.366;2023-08-30T17:17:44;8.10;;;6.38;;
59312;SDS011;45084;51.486;7.366;2023-08-30T17:20:10;7.47;;;6.68;;
59312;SDS011;45084;51.486;7.366;2023-08-30T17:22:38;11.05;;;9.07;;
59312;SDS011;45084;51.486;7.366;2023-08-30T17:38:22;28.33;;;14.50;;
59312;SDS011;45084;51.486;7.366;2023-08-30T17:40:47;26.95;;;15.80;;
59312;SDS011;45084;51.486;7.366;2023-08-30T17:43:13;71.55;;;40.83;;
59312;SDS011;45084;51.486;7.366;2023-08-30T17:45:39;47.42;;;29.90;;
59312;SDS011;45084;51.486;7.366;2023-08-30T17:48:05;25.20;;;16.77;;
59312;SDS011;45084;51.486;7.366;2023-08-30T17:50:31;31.15;;;19.25;;
59312;SDS011;45084;51.486;7.366;2023-08-30T17:52:58;30.83;;;22.13;;